sensor_id;sensor_type;location;lat;lon;timestamp;P1;durP1;ratioP1;P2;durP2;ratioP2
11970;SDS011;6045;42.682;23.294;2023-02-10T00:02:21;7.10;;;6.33;;
11970;SDS011;6045;42.682;23.294;2023-02-10T00:04:48;16.93;;;5.10;;
11970;SDS011;6045;42.682;23.294;2023-02-10T00:07:16;9.40;;;4.40;;
11970;SDS011;6045;42.682;23.294;2023-02-10T00:09:43;5.50;;;3.40;;
11970;SDS011;6045;42.682;23.294;2023-02-10T00:12:11;10.63;;;6.37;;
11970;SDS011;6045;42.682;23.294;2023-02-10T00:14:38;8.23;;;6.00;;
11970;SDS011;6045;42.682;23.294;2023-02-10T00:17:05;5.27;;;4.67;;
11970;SDS011;6045;42.682;23.294;2023-02-10T00:19:32;5.17;;;3.97;;
11970;SDS011;6045;42.682;23.294;2023-02-10T00:21:59;10.03;;;5.73;;
11970;SDS011;6045;42.682;23.294;2023-02-10T00:24:27;8.40;;;7.67;;
11970;SDS011;6045;42.682;23.294;2023-02-10T00:26:54;13.63;;;6.73;;
11970;SDS011;6045;42.682;23.294;2023-02-10T00:29:22;7.63;;;6.70;;
11970;SDS011;6045;42.682;23.294;2023-02-10T00:31:49;11.67;;;7.57;;
11970;SDS011;6045;42.682;23.294;2023-02-10T00:34:16;5.27;;;4.87;;
11970;SDS011;6045;42.682;23.294;2023-02-10T00:36:43;9.73;;;6.17;;
11970;SDS011;6045;42.682;23.294;2023-02-10T00:39:11;8.27;;;2.43;;
11970;SDS011;6045;42.682;23.294;2023-02-10T00:41:39;5.17;;;4.17;;
11970;SDS011;6045;42.682;23.294;2023-02-10T00:44:06;3.03;;;2.83;;
11970;SDS011;6045;42.682;23.294;2023-02-10T00:46:34;4.63;;;4.23;;
11970;SDS011;6045;42.682;23.294;2023-02-10T00:49:01;11.97;;;4.80;;
11970;SDS011;6045;42.682;23.294;2023-02-10T00:51:27;7.90;;;4.73;;
11970;SDS011;6045;42.682;23.294;2023-02-10T00:53:54;4.47;;;2.53;;
11970;SDS011;6045;42.682;23.294;2023-02-10T00:56:21;3.20;;;3.00;;
11970;SDS011;6045;42.682;23.294;2023-02-10T00:58:47;12.77;;;3.97;;
11970;SDS011;6045;42.682;23.294;2023-02-10T01:01:14;15.03;;;5.97;;
11970;SDS011;6045;42.682;23.294;2023-02-10T01:03:43;4.13;;;3.67;;
11970;SDS011;6045;42.682;23.294;2023-02-10T01:06:10;5.27;;;3.33;;
11970;SDS011;6045;42.682;23.294;2023-02-10T01:08:39;7.40;;;2.60;;
11970;SDS011;6045;42.682;23.294;2023-02-10T01:11:07;7.67;;;3.77;;
11970;SDS011;6045;42.682;23.294;2023-02-10T01:13:36;2.87;;;2.10;;
11970;SDS011;6045;42.682;23.294;2023-02-10T01:16:04;8.03;;;6.67;;
11970;SDS011;6045;42.682;23.294;2023-02-10T01:18:34;6.57;;;4.47;;
11970;SDS011;6045;42.682;23.294;2023-02-10T01:21:06;7.67;;;5.23;;
11970;SDS011;6045;42.682;23.294;2023-02-10T01:23:34;5.90;;;4.27;;
11970;SDS011;6045;42.682;23.294;2023-02-10T01:26:01;4.43;;;4.13;;
11970;SDS011;6045;42.682;23.294;2023-02-10T01:28:28;6.73;;;4.07;;
11970;SDS011;6045;42.682;23.294;2023-02-10T01:30:55;8.33;;;7.47;;
11970;SDS011;6045;42.682;23.294;2023-02-10T01:33:22;15.37;;;5.87;;
11970;SDS011;6045;42.682;23.294;2023-02-10T01:35:49;6.27;;;5.67;;
11970;SDS011;6045;42.682;23.294;2023-02-10T01:38:17;7.90;;;5.00;;
11970;SDS011;6045;42.682;23.294;2023-02-10T01:40:46;3.60;;;3.23;;
11970;SDS011;6045;42.682;23.294;2023-02-10T01:43:14;4.67;;;3.97;;
11970;SDS011;6045;42.682;23.294;2023-02-10T01:45:41;11.60;;;4.57;;
11970;SDS011;6045;42.682;23.294;2023-02-10T01:48:11;5.73;;;4.33;;
11970;SDS011;6045;42.682;23.294;2023-02-10T01:50:40;6.23;;;5.17;;
11970;SDS011;6045;42.682;23.294;2023-02-10T01:53:10;9.03;;;6.43;;
11970;SDS011;6045;42.682;23.294;2023-02-10T01:55:39;9.83;;;6.23;;
11970;SDS011;6045;42.682;23.294;2023-02-10T01:58:09;7.03;;;3.37;;
11970;SDS011;6045;42.682;23.294;2023-02-10T02:00:39;10.27;;;5.67;;
11970;SDS011;6045;42.682;23.294;2023-02-10T02:03:06;5.53;;;4.03;;
11970;SDS011;6045;42.682;23.294;2023-02-10T02:05:35;11.30;;;7.50;;
11970;SDS011;6045;42.682;23.294;2023-02-10T02:08:03;6.50;;;5.37;;
11970;SDS011;6045;42.682;23.294;2023-02-10T02:10:35;21.33;;;4.63;;
11970;SDS011;6045;42.682;23.294;2023-02-10T02:13:11;13.23;;;5.23;;
11970;SDS011;6045;42.682;23.294;2023-02-10T02:15:46;13.93;;;7.77;;
11970;SDS011;6045;42.682;23.294;2023-02-10T02:18:19;7.37;;;6.20;;
11970;SDS011;6045;42.682;23.294;2023-02-10T02:21:05;5.70;;;4.90;;
11970;SDS011;6045;42.682;23.294;2023-02-10T02:24:07;16.40;;;6.27;;
11970;SDS011;6045;42.682;23.294;2023-02-10T02:26:51;5.50;;;4.17;;
11970;SDS011;6045;42.682;23.294;2023-02-10T02:29:58;7.20;;;5.00;;
11970;SDS011;6045;42.682;23.294;2023-02-10T02:32:46;5.00;;;4.13;;
11970;SDS011;6045;42.682;23.294;2023-02-10T02:35:19;11.23;;;4.77;;
11970;SDS011;6045;42.682;23.294;2023-02-10T02:37:51;14.93;;;6.00;;
11970;SDS011;6045;42.682;23.294;2023-02-10T02:40:19;7.83;;;5.27;;
11970;SDS011;6045;42.682;23.294;2023-02-10T02:42:46;8.37;;;5.00;;
11970;SDS011;6045;42.682;23.294;2023-02-10T02:45:16;7.87;;;5.07;;
11970;SDS011;6045;42.682;23.294;2023-02-10T02:47:57;17.03;;;4.87;;
11970;SDS011;6045;42.682;23.294;2023-02-10T02:50:33;4.83;;;4.13;;
11970;SDS011;6045;42.682;23.294;2023-02-10T02:53:05;4.20;;;3.23;;
11970;SDS011;6045;42.682;23.294;2023-02-10T02:55:41;3.43;;;3.00;;
11970;SDS011;6045;42.682;23.294;2023-02-10T02:58:19;6.87;;;3.80;;
11970;SDS011;6045;42.682;23.294;2023-02-10T03:00:50;6.83;;;3.23;;
11970;SDS011;6045;42.682;23.294;2023-02-10T03:03:21;8.93;;;3.20;;
11970;SDS011;6045;42.682;23.294;2023-02-10T03:05:48;10.73;;;4.03;;
11970;SDS011;6045;42.682;23.294;2023-02-10T03:08:15;3.43;;;3.13;;
11970;SDS011;6045;42.682;23.294;2023-02-10T03:10:41;5.17;;;4.43;;
11970;SDS011;6045;42.682;23.294;2023-02-10T03:13:08;4.63;;;3.50;;
11970;SDS011;6045;42.682;23.294;2023-02-10T03:15:35;3.73;;;3.40;;
11970;SDS011;6045;42.682;23.294;2023-02-10T03:18:01;11.07;;;3.77;;
11970;SDS011;6045;42.682;23.294;2023-02-10T03:20:30;3.57;;;3.37;;
11970;SDS011;6045;42.682;23.294;2023-02-10T03:22:56;7.07;;;4.73;;
11970;SDS011;6045;42.682;23.294;2023-02-10T03:25:23;6.67;;;4.30;;
11970;SDS011;6045;42.682;23.294;2023-02-10T03:27:50;6.70;;;4.87;;
11970;SDS011;6045;42.682;23.294;2023-02-10T03:30:16;5.03;;;4.63;;
11970;SDS011;6045;42.682;23.294;2023-02-10T03:32:43;8.03;;;4.67;;
11970;SDS011;6045;42.682;23.294;2023-02-10T03:35:11;9.63;;;5.17;;
11970;SDS011;6045;42.682;23.294;2023-02-10T03:37:39;7.03;;;4.70;;
11970;SDS011;6045;42.682;23.294;2023-02-10T03:40:07;4.50;;;3.57;;
11970;SDS011;6045;42.682;23.294;2023-02-10T03:42:34;6.83;;;3.97;;
11970;SDS011;6045;42.682;23.294;2023-02-10T03:45:01;6.70;;;3.03;;
11970;SDS011;6045;42.682;23.294;2023-02-10T03:47:27;8.40;;;3.13;;
11970;SDS011;6045;42.682;23.294;2023-02-10T03:49:54;13.00;;;5.60;;
11970;SDS011;6045;42.682;23.294;2023-02-10T03:52:21;7.80;;;4.30;;
11970;SDS011;6045;42.682;23.294;2023-02-10T03:54:49;5.60;;;3.90;;
11970;SDS011;6045;42.682;23.294;2023-02-10T03:57:16;6.27;;;5.47;;
11970;SDS011;6045;42.682;23.294;2023-02-10T03:59:43;12.70;;;4.33;;
11970;SDS011;6045;42.682;23.294;2023-02-10T04:02:10;11.43;;;5.93;;
11970;SDS011;6045;42.682;23.294;2023-02-10T04:04:37;6.07;;;4.13;;
11970;SDS011;6045;42.682;23.294;2023-02-10T04:07:04;9.57;;;4.67;;
11970;SDS011;6045;42.682;23.294;2023-02-10T04:09:30;9.50;;;5.53;;
11970;SDS011;6045;42.682;23.294;2023-02-10T04:11:59;5.43;;;4.93;;
11970;SDS011;6045;42.682;23.294;2023-02-10T04:14:25;9.07;;;5.43;;
11970;SDS011;6045;42.682;23.294;2023-02-10T04:16:52;5.90;;;4.23;;
11970;SDS011;6045;42.682;23.294;2023-02-10T04:19:19;9.47;;;3.90;;
11970;SDS011;6045;42.682;23.294;2023-02-10T04:21:46;7.97;;;5.37;;
11970;SDS011;6045;42.682;23.294;2023-02-10T04:24:13;8.40;;;5.20;;
11970;SDS011;6045;42.682;23.294;2023-02-10T04:26:40;7.20;;;4.73;;
11970;SDS011;6045;42.682;23.294;2023-02-10T04:29:08;14.20;;;3.77;;
11970;SDS011;6045;42.682;23.294;2023-02-10T04:31:35;7.03;;;5.00;;
11970;SDS011;6045;42.682;23.294;2023-02-10T04:34:02;9.50;;;5.47;;
11970;SDS011;6045;42.682;23.294;2023-02-10T04:36:28;6.23;;;5.13;;
11970;SDS011;6045;42.682;23.294;2023-02-10T04:38:55;3.90;;;3.30;;
11970;SDS011;6045;42.682;23.294;2023-02-10T04:41:22;11.07;;;6.17;;
11970;SDS011;6045;42.682;23.294;2023-02-10T04:43:49;4.03;;;3.70;;
11970;SDS011;6045;42.682;23.294;2023-02-10T04:46:17;10.60;;;5.00;;
11970;SDS011;6045;42.682;23.294;2023-02-10T04:48:43;7.77;;;3.13;;
11970;SDS011;6045;42.682;23.294;2023-02-10T04:51:10;3.70;;;3.37;;
11970;SDS011;6045;42.682;23.294;2023-02-10T04:53:39;5.13;;;4.63;;
11970;SDS011;6045;42.682;23.294;2023-02-10T04:56:08;2.33;;;2.13;;
11970;SDS011;6045;42.682;23.294;2023-02-10T04:58:35;4.80;;;3.60;;
11970;SDS011;6045;42.682;23.294;2023-02-10T05:01:02;3.13;;;2.93;;
11970;SDS011;6045;42.682;23.294;2023-02-10T05:03:30;5.03;;;2.60;;
11970;SDS011;6045;42.682;23.294;2023-02-10T05:05:57;2.93;;;2.73;;
11970;SDS011;6045;42.682;23.294;2023-02-10T05:08:24;2.30;;;1.73;;
11970;SDS011;6045;42.682;23.294;2023-02-10T05:10:51;9.57;;;2.73;;
11970;SDS011;6045;42.682;23.294;2023-02-10T05:13:19;5.00;;;3.67;;
11970;SDS011;6045;42.682;23.294;2023-02-10T05:15:46;3.13;;;2.93;;
11970;SDS011;6045;42.682;23.294;2023-02-10T05:18:13;2.87;;;2.67;;
11970;SDS011;6045;42.682;23.294;2023-02-10T05:20:41;6.40;;;2.77;;
11970;SDS011;6045;42.682;23.294;2023-02-10T05:23:08;10.53;;;4.73;;
11970;SDS011;6045;42.682;23.294;2023-02-10T05:25:34;8.93;;;5.30;;
11970;SDS011;6045;42.682;23.294;2023-02-10T05:28:01;4.40;;;3.90;;
11970;SDS011;6045;42.682;23.294;2023-02-10T05:30:28;9.63;;;6.03;;
11970;SDS011;6045;42.682;23.294;2023-02-10T05:32:54;11.33;;;7.70;;
11970;SDS011;6045;42.682;23.294;2023-02-10T05:35:21;8.73;;;6.50;;
11970;SDS011;6045;42.682;23.294;2023-02-10T05:37:49;13.37;;;7.50;;
11970;SDS011;6045;42.682;23.294;2023-02-10T05:40:16;11.40;;;6.83;;
11970;SDS011;6045;42.682;23.294;2023-02-10T05:42:43;13.10;;;7.07;;
11970;SDS011;6045;42.682;23.294;2023-02-10T05:45:09;14.43;;;9.23;;
11970;SDS011;6045;42.682;23.294;2023-02-10T05:47:36;12.50;;;6.90;;
11970;SDS011;6045;42.682;23.294;2023-02-10T05:50:03;12.40;;;8.40;;
11970;SDS011;6045;42.682;23.294;2023-02-10T05:52:30;15.50;;;7.33;;
11970;SDS011;6045;42.682;23.294;2023-02-10T05:54:58;12.30;;;7.87;;
11970;SDS011;6045;42.682;23.294;2023-02-10T05:57:25;10.77;;;6.03;;
11970;SDS011;6045;42.682;23.294;2023-02-10T05:59:52;16.27;;;7.47;;
11970;SDS011;6045;42.682;23.294;2023-02-10T06:02:18;9.60;;;7.00;;
11970;SDS011;6045;42.682;23.294;2023-02-10T06:04:45;17.07;;;6.67;;
11970;SDS011;6045;42.682;23.294;2023-02-10T06:07:12;14.23;;;6.43;;
11970;SDS011;6045;42.682;23.294;2023-02-10T06:09:39;13.47;;;7.40;;
11970;SDS011;6045;42.682;23.294;2023-02-10T06:12:07;13.27;;;7.77;;
11970;SDS011;6045;42.682;23.294;2023-02-10T06:14:34;14.53;;;7.63;;
11970;SDS011;6045;42.682;23.294;2023-02-10T06:17:03;12.53;;;5.70;;
11970;SDS011;6045;42.682;23.294;2023-02-10T06:19:33;10.83;;;7.93;;
11970;SDS011;6045;42.682;23.294;2023-02-10T06:22:00;11.70;;;6.90;;
11970;SDS011;6045;42.682;23.294;2023-02-10T06:24:27;13.77;;;7.20;;
11970;SDS011;6045;42.682;23.294;2023-02-10T06:26:54;14.47;;;6.17;;
11970;SDS011;6045;42.682;23.294;2023-02-10T06:29:22;13.03;;;8.30;;
11970;SDS011;6045;42.682;23.294;2023-02-10T06:31:49;10.67;;;6.23;;
11970;SDS011;6045;42.682;23.294;2023-02-10T06:34:16;11.33;;;6.37;;
11970;SDS011;6045;42.682;23.294;2023-02-10T06:36:43;15.17;;;7.57;;
11970;SDS011;6045;42.682;23.294;2023-02-10T06:39:09;9.23;;;7.03;;
11970;SDS011;6045;42.682;23.294;2023-02-10T06:41:36;9.70;;;6.27;;
11970;SDS011;6045;42.682;23.294;2023-02-10T06:44:03;13.77;;;7.07;;
11970;SDS011;6045;42.682;23.294;2023-02-10T06:46:31;18.57;;;8.20;;
11970;SDS011;6045;42.682;23.294;2023-02-10T06:48:58;15.13;;;7.43;;
11970;SDS011;6045;42.682;23.294;2023-02-10T06:51:26;12.40;;;8.37;;
11970;SDS011;6045;42.682;23.294;2023-02-10T06:53:53;9.17;;;6.73;;
11970;SDS011;6045;42.682;23.294;2023-02-10T06:56:20;17.20;;;9.07;;
11970;SDS011;6045;42.682;23.294;2023-02-10T06:58:46;21.07;;;9.50;;
11970;SDS011;6045;42.682;23.294;2023-02-10T07:01:15;18.70;;;9.90;;
11970;SDS011;6045;42.682;23.294;2023-02-10T07:03:45;13.67;;;9.07;;
11970;SDS011;6045;42.682;23.294;2023-02-10T07:06:12;18.33;;;7.87;;
11970;SDS011;6045;42.682;23.294;2023-02-10T07:08:39;12.53;;;8.07;;
11970;SDS011;6045;42.682;23.294;2023-02-10T07:11:05;13.63;;;8.83;;
11970;SDS011;6045;42.682;23.294;2023-02-10T07:13:32;21.23;;;9.90;;
11970;SDS011;6045;42.682;23.294;2023-02-10T07:15:59;14.07;;;10.37;;
11970;SDS011;6045;42.682;23.294;2023-02-10T07:18:26;16.13;;;9.57;;
11970;SDS011;6045;42.682;23.294;2023-02-10T07:20:56;11.80;;;7.70;;
11970;SDS011;6045;42.682;23.294;2023-02-10T07:23:23;13.97;;;8.07;;
11970;SDS011;6045;42.682;23.294;2023-02-10T07:25:49;13.13;;;8.33;;
11970;SDS011;6045;42.682;23.294;2023-02-10T07:28:16;16.43;;;9.63;;
11970;SDS011;6045;42.682;23.294;2023-02-10T07:30:43;15.77;;;9.73;;
11970;SDS011;6045;42.682;23.294;2023-02-10T07:33:09;15.83;;;9.63;;
11970;SDS011;6045;42.682;23.294;2023-02-10T07:35:36;17.30;;;8.30;;
11970;SDS011;6045;42.682;23.294;2023-02-10T07:38:04;17.87;;;10.70;;
11970;SDS011;6045;42.682;23.294;2023-02-10T07:40:31;20.50;;;9.00;;
11970;SDS011;6045;42.682;23.294;2023-02-10T07:42:58;19.07;;;10.53;;
11970;SDS011;6045;42.682;23.294;2023-02-10T07:45:24;13.13;;;9.17;;
11970;SDS011;6045;42.682;23.294;2023-02-10T07:47:55;17.70;;;9.07;;
11970;SDS011;6045;42.682;23.294;2023-02-10T07:50:22;11.57;;;7.70;;
11970;SDS011;6045;42.682;23.294;2023-02-10T07:52:49;18.77;;;8.70;;
11970;SDS011;6045;42.682;23.294;2023-02-10T07:55:18;13.17;;;8.07;;
11970;SDS011;6045;42.682;23.294;2023-02-10T07:57:44;15.27;;;8.73;;
11970;SDS011;6045;42.682;23.294;2023-02-10T08:00:11;16.97;;;8.43;;
11970;SDS011;6045;42.682;23.294;2023-02-10T08:02:39;16.27;;;8.73;;
11970;SDS011;6045;42.682;23.294;2023-02-10T08:05:06;12.77;;;7.67;;
11970;SDS011;6045;42.682;23.294;2023-02-10T08:07:33;15.57;;;7.87;;
11970;SDS011;6045;42.682;23.294;2023-02-10T08:10:00;13.27;;;7.47;;
11970;SDS011;6045;42.682;23.294;2023-02-10T08:12:28;12.40;;;6.17;;
11970;SDS011;6045;42.682;23.294;2023-02-10T08:14:55;14.93;;;7.87;;
11970;SDS011;6045;42.682;23.294;2023-02-10T08:17:22;13.97;;;7.37;;
11970;SDS011;6045;42.682;23.294;2023-02-10T08:19:48;14.07;;;7.77;;
11970;SDS011;6045;42.682;23.294;2023-02-10T08:22:15;11.33;;;7.30;;
11970;SDS011;6045;42.682;23.294;2023-02-10T08:24:42;13.23;;;7.97;;
11970;SDS011;6045;42.682;23.294;2023-02-10T08:27:08;17.60;;;8.77;;
11970;SDS011;6045;42.682;23.294;2023-02-10T08:29:37;13.50;;;8.60;;
11970;SDS011;6045;42.682;23.294;2023-02-10T08:32:03;12.93;;;8.43;;
11970;SDS011;6045;42.682;23.294;2023-02-10T08:34:30;15.30;;;8.93;;
11970;SDS011;6045;42.682;23.294;2023-02-10T08:36:58;15.03;;;8.60;;
11970;SDS011;6045;42.682;23.294;2023-02-10T08:39:26;13.67;;;8.47;;
11970;SDS011;6045;42.682;23.294;2023-02-10T08:41:54;14.60;;;8.27;;
11970;SDS011;6045;42.682;23.294;2023-02-10T08:44:20;16.00;;;8.40;;
11970;SDS011;6045;42.682;23.294;2023-02-10T08:46:48;16.90;;;9.63;;
11970;SDS011;6045;42.682;23.294;2023-02-10T08:49:16;16.07;;;8.90;;
11970;SDS011;6045;42.682;23.294;2023-02-10T08:51:43;15.57;;;9.73;;
11970;SDS011;6045;42.682;23.294;2023-02-10T08:54:10;11.60;;;6.63;;
11970;SDS011;6045;42.682;23.294;2023-02-10T08:56:36;12.83;;;8.07;;
11970;SDS011;6045;42.682;23.294;2023-02-10T08:59:03;14.73;;;8.13;;
11970;SDS011;6045;42.682;23.294;2023-02-10T09:01:30;13.40;;;8.00;;
11970;SDS011;6045;42.682;23.294;2023-02-10T09:03:58;12.13;;;7.17;;
11970;SDS011;6045;42.682;23.294;2023-02-10T09:06:26;7.63;;;6.37;;
11970;SDS011;6045;42.682;23.294;2023-02-10T09:08:55;13.70;;;8.07;;
11970;SDS011;6045;42.682;23.294;2023-02-10T09:11:22;14.40;;;6.20;;
11970;SDS011;6045;42.682;23.294;2023-02-10T09:13:50;11.40;;;6.83;;
11970;SDS011;6045;42.682;23.294;2023-02-10T09:16:17;12.33;;;5.70;;
11970;SDS011;6045;42.682;23.294;2023-02-10T09:18:44;12.70;;;7.07;;
11970;SDS011;6045;42.682;23.294;2023-02-10T09:21:13;17.07;;;9.13;;
11970;SDS011;6045;42.682;23.294;2023-02-10T09:23:40;24.13;;;9.17;;
11970;SDS011;6045;42.682;23.294;2023-02-10T09:26:06;13.00;;;8.50;;
11970;SDS011;6045;42.682;23.294;2023-02-10T09:28:33;17.20;;;9.17;;
11970;SDS011;6045;42.682;23.294;2023-02-10T09:31:00;13.20;;;7.70;;
11970;SDS011;6045;42.682;23.294;2023-02-10T09:33:29;11.70;;;7.70;;
11970;SDS011;6045;42.682;23.294;2023-02-10T09:35:56;18.10;;;8.80;;
11970;SDS011;6045;42.682;23.294;2023-02-10T09:38:25;14.97;;;8.07;;
11970;SDS011;6045;42.682;23.294;2023-02-10T09:40:55;19.17;;;9.67;;
11970;SDS011;6045;42.682;23.294;2023-02-10T09:46:33;16.07;;;8.20;;
11970;SDS011;6045;42.682;23.294;2023-02-10T09:49:12;15.77;;;8.83;;
11970;SDS011;6045;42.682;23.294;2023-02-10T09:51:52;15.40;;;7.67;;
11970;SDS011;6045;42.682;23.294;2023-02-10T09:54:29;13.07;;;8.43;;
11970;SDS011;6045;42.682;23.294;2023-02-10T09:57:00;13.53;;;9.03;;
11970;SDS011;6045;42.682;23.294;2023-02-10T09:59:29;14.00;;;8.17;;
11970;SDS011;6045;42.682;23.294;2023-02-10T10:02:01;17.20;;;9.37;;
11970;SDS011;6045;42.682;23.294;2023-02-10T10:04:37;15.43;;;8.90;;
11970;SDS011;6045;42.682;23.294;2023-02-10T10:07:09;16.93;;;10.63;;
11970;SDS011;6045;42.682;23.294;2023-02-10T10:09:49;13.73;;;9.13;;
11970;SDS011;6045;42.682;23.294;2023-02-10T10:12:23;21.50;;;10.37;;
11970;SDS011;6045;42.682;23.294;2023-02-10T10:14:50;20.57;;;9.50;;
11970;SDS011;6045;42.682;23.294;2023-02-10T10:20:28;14.70;;;8.47;;
11970;SDS011;6045;42.682;23.294;2023-02-10T10:23:13;16.43;;;8.60;;
11970;SDS011;6045;42.682;23.294;2023-02-10T10:26:04;13.93;;;9.03;;
11970;SDS011;6045;42.682;23.294;2023-02-10T10:28:42;14.67;;;9.50;;
11970;SDS011;6045;42.682;23.294;2023-02-10T10:31:19;18.30;;;9.20;;
11970;SDS011;6045;42.682;23.294;2023-02-10T10:33:51;12.77;;;8.33;;
11970;SDS011;6045;42.682;23.294;2023-02-10T10:36:21;19.90;;;9.20;;
11970;SDS011;6045;42.682;23.294;2023-02-10T10:38:51;19.40;;;9.90;;
11970;SDS011;6045;42.682;23.294;2023-02-10T10:41:21;14.20;;;9.87;;
11970;SDS011;6045;42.682;23.294;2023-02-10T10:43:52;18.20;;;10.27;;
11970;SDS011;6045;42.682;23.294;2023-02-10T10:46:21;16.90;;;9.53;;
11970;SDS011;6045;42.682;23.294;2023-02-10T10:48:54;14.03;;;9.13;;
11970;SDS011;6045;42.682;23.294;2023-02-10T10:51:21;16.90;;;9.43;;
11970;SDS011;6045;42.682;23.294;2023-02-10T10:53:49;19.77;;;9.97;;
11970;SDS011;6045;42.682;23.294;2023-02-10T10:56:19;16.23;;;9.17;;
11970;SDS011;6045;42.682;23.294;2023-02-10T10:58:54;16.80;;;9.97;;
11970;SDS011;6045;42.682;23.294;2023-02-10T11:01:30;15.80;;;9.63;;
11970;SDS011;6045;42.682;23.294;2023-02-10T11:04:06;15.20;;;9.03;;
11970;SDS011;6045;42.682;23.294;2023-02-10T11:06:37;18.07;;;9.90;;
11970;SDS011;6045;42.682;23.294;2023-02-10T11:09:06;16.00;;;9.27;;
11970;SDS011;6045;42.682;23.294;2023-02-10T11:11:44;15.63;;;9.53;;
11970;SDS011;6045;42.682;23.294;2023-02-10T11:14:13;15.43;;;9.30;;
11970;SDS011;6045;42.682;23.294;2023-02-10T11:16:42;10.47;;;7.67;;
11970;SDS011;6045;42.682;23.294;2023-02-10T11:19:16;18.50;;;8.90;;
11970;SDS011;6045;42.682;23.294;2023-02-10T11:21:44;19.27;;;9.70;;
11970;SDS011;6045;42.682;23.294;2023-02-10T11:24:19;15.00;;;9.87;;
11970;SDS011;6045;42.682;23.294;2023-02-10T11:27:00;15.93;;;9.77;;
11970;SDS011;6045;42.682;23.294;2023-02-10T11:29:28;17.20;;;9.40;;
11970;SDS011;6045;42.682;23.294;2023-02-10T11:31:57;18.83;;;11.10;;
11970;SDS011;6045;42.682;23.294;2023-02-10T11:34:25;18.77;;;10.57;;
11970;SDS011;6045;42.682;23.294;2023-02-10T11:36:54;18.13;;;10.10;;
11970;SDS011;6045;42.682;23.294;2023-02-10T11:39:23;18.60;;;10.07;;
11970;SDS011;6045;42.682;23.294;2023-02-10T11:41:53;17.87;;;9.37;;
11970;SDS011;6045;42.682;23.294;2023-02-10T11:44:26;19.03;;;9.97;;
11970;SDS011;6045;42.682;23.294;2023-02-10T11:46:58;13.17;;;8.43;;
11970;SDS011;6045;42.682;23.294;2023-02-10T11:49:27;14.67;;;7.90;;
11970;SDS011;6045;42.682;23.294;2023-02-10T11:51:57;14.63;;;9.13;;
11970;SDS011;6045;42.682;23.294;2023-02-10T11:54:25;15.43;;;9.57;;
11970;SDS011;6045;42.682;23.294;2023-02-10T11:56:56;20.02;;;9.88;;
11970;SDS011;6045;42.682;23.294;2023-02-10T11:59:54;17.20;;;10.63;;
11970;SDS011;6045;42.682;23.294;2023-02-10T12:02:32;19.10;;;9.85;;
11970;SDS011;6045;42.682;23.294;2023-02-10T12:05:13;18.77;;;9.75;;
11970;SDS011;6045;42.682;23.294;2023-02-10T12:07:51;16.20;;;9.95;;
11970;SDS011;6045;42.682;23.294;2023-02-10T12:10:28;16.20;;;9.32;;
11970;SDS011;6045;42.682;23.294;2023-02-10T12:13:01;18.13;;;9.20;;
11970;SDS011;6045;42.682;23.294;2023-02-10T12:15:43;18.00;;;9.93;;
11970;SDS011;6045;42.682;23.294;2023-02-10T12:18:23;14.73;;;9.15;;
11970;SDS011;6045;42.682;23.294;2023-02-10T12:21:03;16.70;;;9.75;;
11970;SDS011;6045;42.682;23.294;2023-02-10T12:23:44;16.13;;;8.70;;
11970;SDS011;6045;42.682;23.294;2023-02-10T12:26:26;17.47;;;11.07;;
11970;SDS011;6045;42.682;23.294;2023-02-10T12:29:04;14.10;;;8.93;;
11970;SDS011;6045;42.682;23.294;2023-02-10T12:31:44;16.70;;;10.10;;
11970;SDS011;6045;42.682;23.294;2023-02-10T12:34:29;19.53;;;9.90;;
11970;SDS011;6045;42.682;23.294;2023-02-10T12:37:18;18.60;;;10.57;;
11970;SDS011;6045;42.682;23.294;2023-02-10T12:39:57;16.37;;;9.70;;
11970;SDS011;6045;42.682;23.294;2023-02-10T12:42:34;17.93;;;10.33;;
11970;SDS011;6045;42.682;23.294;2023-02-10T12:45:13;22.97;;;12.27;;
11970;SDS011;6045;42.682;23.294;2023-02-10T12:47:51;19.08;;;11.13;;
11970;SDS011;6045;42.682;23.294;2023-02-10T12:50:33;17.60;;;11.53;;
11970;SDS011;6045;42.682;23.294;2023-02-10T12:53:12;16.50;;;10.37;;
11970;SDS011;6045;42.682;23.294;2023-02-10T12:55:44;18.40;;;11.33;;
11970;SDS011;6045;42.682;23.294;2023-02-10T12:58:19;22.83;;;11.40;;
11970;SDS011;6045;42.682;23.294;2023-02-10T13:00:51;22.97;;;12.40;;
11970;SDS011;6045;42.682;23.294;2023-02-10T13:03:26;17.77;;;10.90;;
11970;SDS011;6045;42.682;23.294;2023-02-10T13:05:59;19.03;;;11.20;;
11970;SDS011;6045;42.682;23.294;2023-02-10T13:08:38;22.80;;;11.90;;
11970;SDS011;6045;42.682;23.294;2023-02-10T13:11:14;19.43;;;12.23;;
11970;SDS011;6045;42.682;23.294;2023-02-10T13:13:46;21.30;;;12.70;;
11970;SDS011;6045;42.682;23.294;2023-02-10T13:16:16;18.47;;;11.50;;
11970;SDS011;6045;42.682;23.294;2023-02-10T13:18:48;22.03;;;12.03;;
11970;SDS011;6045;42.682;23.294;2023-02-10T13:21:22;23.03;;;11.60;;
11970;SDS011;6045;42.682;23.294;2023-02-10T13:23:56;24.07;;;12.87;;
11970;SDS011;6045;42.682;23.294;2023-02-10T13:26:36;20.90;;;12.40;;
11970;SDS011;6045;42.682;23.294;2023-02-10T13:29:16;22.73;;;13.40;;
11970;SDS011;6045;42.682;23.294;2023-02-10T13:31:55;20.27;;;11.95;;
11970;SDS011;6045;42.682;23.294;2023-02-10T13:34:34;18.10;;;10.83;;
11970;SDS011;6045;42.682;23.294;2023-02-10T13:37:07;18.33;;;11.48;;
11970;SDS011;6045;42.682;23.294;2023-02-10T13:39:52;21.23;;;11.87;;
11970;SDS011;6045;42.682;23.294;2023-02-10T13:42:23;26.23;;;12.70;;
11970;SDS011;6045;42.682;23.294;2023-02-10T13:44:58;21.67;;;11.63;;
11970;SDS011;6045;42.682;23.294;2023-02-10T13:47:29;20.20;;;11.10;;
11970;SDS011;6045;42.682;23.294;2023-02-10T13:50:02;20.57;;;11.63;;
11970;SDS011;6045;42.682;23.294;2023-02-10T13:52:32;21.97;;;12.60;;
11970;SDS011;6045;42.682;23.294;2023-02-10T13:55:03;23.93;;;13.77;;
11970;SDS011;6045;42.682;23.294;2023-02-10T13:57:53;20.80;;;12.70;;
11970;SDS011;6045;42.682;23.294;2023-02-10T14:00:22;21.33;;;11.87;;
11970;SDS011;6045;42.682;23.294;2023-02-10T14:02:58;20.80;;;11.97;;
11970;SDS011;6045;42.682;23.294;2023-02-10T14:05:29;15.07;;;10.60;;
11970;SDS011;6045;42.682;23.294;2023-02-10T14:07:57;22.63;;;12.23;;
11970;SDS011;6045;42.682;23.294;2023-02-10T14:10:28;20.73;;;12.27;;
11970;SDS011;6045;42.682;23.294;2023-02-10T14:12:58;20.87;;;10.80;;
11970;SDS011;6045;42.682;23.294;2023-02-10T14:15:27;22.30;;;12.20;;
11970;SDS011;6045;42.682;23.294;2023-02-10T14:17:57;21.07;;;12.37;;
11970;SDS011;6045;42.682;23.294;2023-02-10T14:20:26;19.70;;;12.47;;
11970;SDS011;6045;42.682;23.294;2023-02-10T14:23:01;19.23;;;11.23;;
11970;SDS011;6045;42.682;23.294;2023-02-10T14:25:30;17.17;;;10.07;;
11970;SDS011;6045;42.682;23.294;2023-02-10T14:28:00;15.23;;;9.23;;
11970;SDS011;6045;42.682;23.294;2023-02-10T14:30:32;21.20;;;9.73;;
11970;SDS011;6045;42.682;23.294;2023-02-10T14:33:05;14.07;;;10.07;;
11970;SDS011;6045;42.682;23.294;2023-02-10T14:35:34;16.97;;;9.03;;
11970;SDS011;6045;42.682;23.294;2023-02-10T14:38:03;13.43;;;8.47;;
11970;SDS011;6045;42.682;23.294;2023-02-10T14:40:30;21.80;;;10.97;;
11970;SDS011;6045;42.682;23.294;2023-02-10T14:42:59;21.67;;;11.13;;
11970;SDS011;6045;42.682;23.294;2023-02-10T14:45:28;17.93;;;10.23;;
11970;SDS011;6045;42.682;23.294;2023-02-10T14:47:56;14.03;;;9.97;;
11970;SDS011;6045;42.682;23.294;2023-02-10T14:50:26;17.40;;;9.73;;
11970;SDS011;6045;42.682;23.294;2023-02-10T14:52:55;22.43;;;10.70;;
11970;SDS011;6045;42.682;23.294;2023-02-10T14:55:24;17.00;;;9.97;;
11970;SDS011;6045;42.682;23.294;2023-02-10T14:57:55;20.73;;;9.27;;
11970;SDS011;6045;42.682;23.294;2023-02-10T15:00:23;17.57;;;9.43;;